createdAt,value
2023-10-29T00:00:33.810Z,94750.53
2023-10-29T00:01:35.296Z,94747.00
2023-10-29T00:02:37.104Z,94747.59
2023-10-29T00:03:38.769Z,94749.66
2023-10-29T00:04:40.290Z,94745.97
2023-10-29T00:05:42.328Z,94745.56
2023-10-29T00:06:43.805Z,94744.16
2023-10-29T00:07:45.285Z,94744.38
2023-10-29T00:08:47.097Z,94747.44
2023-10-29T00:09:48.514Z,94747.44
2023-10-29T00:10:50.304Z,94753.78
2023-10-29T00:11:51.791Z,94759.31
2023-10-29T00:12:53.344Z,94757.66
2023-10-29T00:13:54.891Z,94757.44
2023-10-29T00:14:56.601Z,94760.09
2023-10-29T00:15:58.061Z,94758.66
2023-10-29T00:16:59.756Z,94756.84
2023-10-29T00:18:02.324Z,94756.63
2023-10-29T00:19:04.256Z,94758.03
2023-10-29T00:20:08.997Z,94758.53
2023-10-29T00:21:10.848Z,94766.09
2023-10-29T00:22:12.677Z,94758.91
2023-10-29T00:23:14.752Z,94752.78
2023-10-29T00:24:16.230Z,94751.91
2023-10-29T00:25:17.892Z,94756.41
2023-10-29T00:26:19.517Z,94749.41
2023-10-29T00:27:24.949Z,94748.63
2023-10-29T00:28:26.988Z,94755.72
2023-10-29T00:29:28.491Z,94747.72
2023-10-29T00:30:30.347Z,94747.94
2023-10-29T00:31:32.278Z,94747.16
2023-10-29T00:32:33.793Z,94753.63
2023-10-29T00:33:35.403Z,94753.63
2023-10-29T00:34:37.389Z,94748.88
2023-10-29T00:35:38.950Z,94747.25
2023-10-29T00:36:40.530Z,94744.75
2023-10-29T00:37:42.241Z,94748.06
2023-10-29T00:38:43.763Z,94748.59
2023-10-29T00:39:45.210Z,94748.25
2023-10-29T00:40:46.752Z,94751.94
2023-10-29T00:41:48.254Z,94758.22
2023-10-29T00:42:49.840Z,94748.03
2023-10-29T00:43:52.274Z,94743.13
2023-10-29T00:44:53.746Z,94742.84
2023-10-29T00:45:55.692Z,94748.38
2023-10-29T00:46:58.187Z,94737.38
2023-10-29T00:48:01.163Z,94741.88
2023-10-29T00:49:03.938Z,94743.72
2023-10-29T00:50:05.774Z,94743.72
2023-10-29T00:51:07.711Z,94736.31
2023-10-29T00:52:09.778Z,94737.97
2023-10-29T00:53:12.082Z,94729.19
2023-10-29T00:54:13.876Z,94734.50
2023-10-29T00:55:15.940Z,94739.16
2023-10-29T00:56:19.766Z,94738.13
2023-10-29T00:57:21.485Z,94727.94
2023-10-29T00:58:25.174Z,94740.19
2023-10-29T00:59:31.276Z,94732.19
2023-10-29T01:00:32.869Z,94734.50
2023-10-29T01:01:34.483Z,94725.47
2023-10-29T01:02:36.720Z,94728.50
2023-10-29T01:03:38.364Z,94732.81
2023-10-29T01:04:40.259Z,94728.50
2023-10-29T01:05:41.772Z,94729.25
2023-10-29T01:06:45.387Z,94738.22
2023-10-29T01:07:48.279Z,94738.22
2023-10-29T01:08:51.405Z,94734.06
2023-10-29T01:09:53.163Z,94741.03
2023-10-29T01:10:56.238Z,94737.75
2023-10-29T01:11:57.998Z,94736.53
2023-10-29T01:12:59.557Z,94738.16
2023-10-29T01:14:02.671Z,94740.97
2023-10-29T01:15:04.437Z,94730.78
2023-10-29T01:16:06.362Z,94724.84
2023-10-29T01:17:07.930Z,94721.75
2023-10-29T01:18:10.321Z,94719.91
2023-10-29T01:19:11.921Z,94714.78
2023-10-29T01:20:13.397Z,94710.03
2023-10-29T01:21:14.994Z,94710.88
2023-10-29T01:22:17.882Z,94701.03
2023-10-29T01:23:19.517Z,94699.16
2023-10-29T01:24:21.043Z,94702.88
2023-10-29T01:25:22.652Z,94705.56
2023-10-29T01:26:25.171Z,94707.78
2023-10-29T01:27:28.068Z,94708.44
2023-10-29T01:28:29.675Z,94700.75
2023-10-29T01:29:31.486Z,94702.84
2023-10-29T01:30:33.271Z,94704.19
2023-10-29T01:31:34.919Z,94694.00
2023-10-29T01:32:36.521Z,94702.09
2023-10-29T01:33:39.030Z,94690.25
2023-10-29T01:34:40.610Z,94688.88
2023-10-29T01:35:42.389Z,94699.13
2023-10-29T01:36:44.050Z,94682.19
2023-10-29T01:37:45.596Z,94690.84
2023-10-29T01:38:47.616Z,94693.31
2023-10-29T01:39:49.414Z,94691.53
2023-10-29T01:40:50.929Z,94696.06
2023-10-29T01:41:57.001Z,94696.06
2023-10-29T01:42:58.692Z,94696.34
2023-10-29T01:44:00.369Z,94693.94
2023-10-29T01:45:01.860Z,94696.81
2023-10-29T01:46:03.745Z,94700.91
2023-10-29T01:47:05.453Z,94690.94
2023-10-29T01:48:07.085Z,94697.88
2023-10-29T01:49:10.446Z,94689.91
2023-10-29T01:50:12.258Z,94695.84
2023-10-29T01:51:13.657Z,94685.22
2023-10-29T01:52:15.093Z,94691.78
2023-10-29T01:53:16.890Z,94692.56
2023-10-29T01:54:18.396Z,94695.25
2023-10-29T01:55:20.156Z,94684.63
2023-10-29T01:56:21.568Z,94683.19
2023-10-29T01:57:23.054Z,94679.84
2023-10-29T01:58:24.504Z,94674.91
2023-10-29T01:59:26.037Z,94677.47
2023-10-29T02:00:27.735Z,94682.94
2023-10-29T02:01:30.591Z,94678.59
2023-10-29T02:02:32.248Z,94684.53
2023-10-29T02:03:33.838Z,94674.88
2023-10-29T02:04:35.692Z,94676.91
2023-10-29T02:05:37.720Z,94677.38
2023-10-29T02:06:40.870Z,94672.66
2023-10-29T02:07:42.525Z,94670.00
2023-10-29T02:08:44.062Z,94665.69
2023-10-29T02:09:45.809Z,94667.38
2023-10-29T02:10:47.326Z,94661.41
2023-10-29T02:11:49.268Z,94658.78
2023-10-29T02:12:50.774Z,94657.56
2023-10-29T02:13:53.328Z,94649.78
2023-10-29T02:14:55.724Z,94657.09
2023-10-29T02:15:57.219Z,94654.41
2023-10-29T02:16:58.731Z,94652.06
2023-10-29T02:18:00.370Z,94646.75
2023-10-29T02:19:02.075Z,94645.34
2023-10-29T02:20:04.216Z,94653.97
2023-10-29T02:21:05.711Z,94655.75
2023-10-29T02:22:07.852Z,94652.66
2023-10-29T02:23:09.335Z,94654.66
2023-10-29T02:24:10.836Z,94648.25
2023-10-29T02:25:12.370Z,94643.44
2023-10-29T02:26:13.858Z,94650.78
2023-10-29T02:27:15.369Z,94651.38
2023-10-29T02:28:16.939Z,94648.41
2023-10-29T02:29:18.676Z,94646.31
2023-10-29T02:30:20.315Z,94652.66
2023-10-29T02:31:22.149Z,94649.31
2023-10-29T02:32:23.641Z,94652.38
2023-10-29T02:33:25.363Z,94651.47
2023-10-29T02:34:26.970Z,94642.81
2023-10-29T02:35:29.000Z,94644.34
2023-10-29T02:36:31.048Z,94644.28
2023-10-29T02:37:32.556Z,94641.25
2023-10-29T02:38:34.052Z,94641.25
2023-10-29T02:39:35.545Z,94638.06
2023-10-29T02:40:37.212Z,94636.66
2023-10-29T02:41:38.834Z,94640.69
2023-10-29T02:42:40.543Z,94635.13
2023-10-29T02:43:42.183Z,94648.44
2023-10-29T02:44:44.114Z,94642.28
2023-10-29T02:45:45.601Z,94636.84
2023-10-29T02:46:47.121Z,94639.34
2023-10-29T02:47:48.962Z,94638.59
2023-10-29T02:48:50.840Z,94639.47
2023-10-29T02:49:52.344Z,94640.78
2023-10-29T02:50:57.311Z,94643.31
2023-10-29T02:51:58.822Z,94644.22
2023-10-29T02:53:00.282Z,94645.28
2023-10-29T02:54:03.297Z,94641.44
2023-10-29T02:55:06.762Z,94646.38
2023-10-29T02:56:08.474Z,94642.50
2023-10-29T02:57:09.965Z,94643.88
2023-10-29T02:58:11.458Z,94643.25
2023-10-29T02:59:12.956Z,94637.50
2023-10-29T03:00:14.919Z,94638.06
2023-10-29T03:01:17.088Z,94636.22
2023-10-29T03:02:18.913Z,94632.59
2023-10-29T03:03:20.590Z,94634.47
2023-10-29T03:04:22.525Z,94638.31
2023-10-29T03:05:24.483Z,94636.22
2023-10-29T03:06:26.194Z,94635.56
2023-10-29T03:07:27.681Z,94625.28
2023-10-29T03:08:29.191Z,94637.88
2023-10-29T03:09:30.680Z,94637.31
2023-10-29T03:10:34.053Z,94633.28
2023-10-29T03:11:35.557Z,94631.13
2023-10-29T03:12:37.124Z,94633.03
2023-10-29T03:13:38.847Z,94630.97
2023-10-29T03:14:40.357Z,94628.59
2023-10-29T03:15:42.033Z,94632.50
2023-10-29T03:16:43.474Z,94626.38
2023-10-29T03:17:45.019Z,94633.38
2023-10-29T03:18:48.445Z,94631.09
2023-10-29T03:19:50.259Z,94637.66
2023-10-29T03:20:51.720Z,94634.94
2023-10-29T03:21:53.219Z,94644.34
2023-10-29T03:22:54.825Z,94640.09
2023-10-29T03:23:56.318Z,94637.59
2023-10-29T03:24:57.831Z,94637.84
2023-10-29T03:26:06.042Z,94642.63
2023-10-29T03:27:07.532Z,94637.50
2023-10-29T03:28:08.994Z,94641.63
2023-10-29T03:29:10.718Z,94641.81
2023-10-29T03:30:12.718Z,94638.75
2023-10-29T03:31:16.145Z,94635.75
2023-10-29T03:32:17.635Z,94641.06
2023-10-29T03:33:19.195Z,94642.66
2023-10-29T03:34:20.829Z,94643.66
2023-10-29T03:35:22.287Z,94643.28
2023-10-29T03:36:24.095Z,94641.88
2023-10-29T03:37:25.548Z,94649.03
2023-10-29T03:38:27.815Z,94649.91
2023-10-29T03:39:32.351Z,94647.94
2023-10-29T03:40:33.760Z,94651.94
2023-10-29T03:41:36.555Z,94654.38
2023-10-29T03:42:38.042Z,94648.84
2023-10-29T03:43:39.839Z,94640.44
2023-10-29T03:44:41.324Z,94649.81
2023-10-29T03:45:42.762Z,94654.09
2023-10-29T03:46:44.248Z,94659.81
2023-10-29T03:47:45.855Z,94663.88
2023-10-29T03:48:47.469Z,94665.69
2023-10-29T03:49:49.186Z,94660.50
2023-10-29T03:50:50.773Z,94665.66
2023-10-29T03:51:52.328Z,94646.44
2023-10-29T03:52:53.995Z,94648.28
2023-10-29T03:53:56.225Z,94652.91
2023-10-29T03:54:57.734Z,94650.66
2023-10-29T03:56:01.820Z,94642.97
2023-10-29T03:57:04.751Z,94654.91
2023-10-29T03:58:06.216Z,94641.25
2023-10-29T03:59:07.733Z,94642.34
2023-10-29T04:00:10.373Z,94647.66
2023-10-29T04:01:15.368Z,94641.44
2023-10-29T04:02:16.981Z,94636.31
2023-10-29T04:03:18.823Z,94639.00
2023-10-29T04:04:20.369Z,94643.66
2023-10-29T04:05:21.810Z,94637.03
2023-10-29T04:06:23.536Z,94643.66
2023-10-29T04:07:25.012Z,94634.25
2023-10-29T04:08:26.511Z,94634.16
2023-10-29T04:09:28.394Z,94636.81
2023-10-29T04:10:29.901Z,94632.63
2023-10-29T04:11:31.481Z,94626.81
2023-10-29T04:12:33.759Z,94621.44
2023-10-29T04:13:35.268Z,94613.31
2023-10-29T04:14:38.113Z,94610.75
2023-10-29T04:15:39.641Z,94606.91
2023-10-29T04:16:41.132Z,94606.31
2023-10-29T04:17:42.861Z,94618.47
2023-10-29T04:18:44.346Z,94619.16
2023-10-29T04:19:46.070Z,94618.59
2023-10-29T04:20:47.936Z,94615.00
2023-10-29T04:21:49.413Z,94615.78
2023-10-29T04:22:50.958Z,94607.44
2023-10-29T04:23:52.785Z,94608.53
2023-10-29T04:24:54.359Z,94608.69
2023-10-29T04:25:55.860Z,94608.03
2023-10-29T04:26:57.459Z,94611.72
2023-10-29T04:27:58.912Z,94606.84
2023-10-29T04:29:00.438Z,94598.41
2023-10-29T04:30:02.114Z,94596.94
2023-10-29T04:31:03.930Z,94595.91
2023-10-29T04:32:05.571Z,94601.47
2023-10-29T04:33:07.135Z,94593.97
2023-10-29T04:34:08.996Z,94601.97
2023-10-29T04:35:10.574Z,94601.16
2023-10-29T04:36:25.236Z,94593.28
2023-10-29T04:37:26.982Z,94596.19
2023-10-29T04:38:29.545Z,94599.91
2023-10-29T04:39:31.271Z,94598.28
2023-10-29T04:40:32.759Z,94598.97
2023-10-29T04:41:34.317Z,94601.06
2023-10-29T04:42:35.896Z,94598.13
2023-10-29T04:43:37.368Z,94595.47
2023-10-29T04:44:38.936Z,94604.88
2023-10-29T04:45:40.527Z,94604.88
2023-10-29T04:46:41.986Z,94599.19
2023-10-29T04:47:43.617Z,94597.22
2023-10-29T04:48:45.496Z,94591.31
2023-10-29T04:49:47.054Z,94596.31
2023-10-29T04:50:48.513Z,94592.00
2023-10-29T04:51:49.975Z,94590.50
2023-10-29T04:52:51.434Z,94590.84
2023-10-29T04:53:52.921Z,94596.28
2023-10-29T04:54:54.460Z,94596.28
2023-10-29T04:55:55.890Z,94591.41
2023-10-29T04:56:57.606Z,94584.69
2023-10-29T04:57:59.150Z,94585.94
2023-10-29T04:59:01.215Z,94579.22
2023-10-29T05:00:05.518Z,94583.47
2023-10-29T05:01:07.077Z,94576.06
2023-10-29T05:02:08.680Z,94574.78
2023-10-29T05:03:10.196Z,94580.22
2023-10-29T05:04:11.789Z,94579.50
2023-10-29T05:05:13.322Z,94572.63
2023-10-29T05:06:21.628Z,94576.66
2023-10-29T05:07:23.434Z,94574.75
2023-10-29T05:08:24.887Z,94573.69
2023-10-29T05:09:26.449Z,94576.19
2023-10-29T05:10:29.683Z,94580.19
2023-10-29T05:11:32.349Z,94583.06
2023-10-29T05:12:34.030Z,94588.69
2023-10-29T05:13:35.498Z,94588.16
2023-10-29T05:14:37.262Z,94587.41
2023-10-29T05:15:39.157Z,94587.50
2023-10-29T05:16:40.887Z,94583.41
2023-10-29T05:17:42.563Z,94579.16
2023-10-29T05:18:44.125Z,94579.94
2023-10-29T05:19:45.842Z,94581.38
2023-10-29T05:20:47.282Z,94579.28
2023-10-29T05:21:49.799Z,94582.31
2023-10-29T05:22:51.364Z,94575.97
2023-10-29T05:23:53.546Z,94577.94
2023-10-29T05:24:55.017Z,94581.78
2023-10-29T05:25:57.158Z,94588.53
2023-10-29T05:26:59.119Z,94580.91
2023-10-29T05:28:00.582Z,94576.16
2023-10-29T05:29:02.002Z,94578.59
2023-10-29T05:30:07.264Z,94580.00
2023-10-29T05:31:08.753Z,94580.81
2023-10-29T05:32:10.233Z,94580.38
2023-10-29T05:33:12.152Z,94578.53
2023-10-29T05:34:15.622Z,94579.13
2023-10-29T05:35:17.080Z,94581.19
2023-10-29T05:36:18.473Z,94580.16
2023-10-29T05:37:20.229Z,94580.75
2023-10-29T05:38:21.661Z,94575.19
2023-10-29T05:39:23.081Z,94579.94
2023-10-29T05:40:24.668Z,94582.81
2023-10-29T05:41:26.444Z,94582.00
2023-10-29T05:42:27.931Z,94583.28
2023-10-29T05:43:29.370Z,94587.78
2023-10-29T05:44:30.860Z,94582.44
2023-10-29T05:45:32.453Z,94576.91
2023-10-29T05:46:34.036Z,94578.75
2023-10-29T05:47:35.612Z,94577.13
2023-10-29T05:48:37.171Z,94576.09
2023-10-29T05:49:38.779Z,94584.31
2023-10-29T05:50:40.335Z,94585.13
2023-10-29T05:51:41.850Z,94580.81
2023-10-29T05:52:43.910Z,94586.75
2023-10-29T05:53:45.962Z,94586.75
2023-10-29T05:54:47.700Z,94590.22
2023-10-29T05:55:49.276Z,94589.78
2023-10-29T05:56:50.742Z,94585.50
2023-10-29T05:57:53.275Z,94583.63
2023-10-29T05:58:54.730Z,94590.81
2023-10-29T05:59:56.603Z,94589.19
2023-10-29T06:00:58.895Z,94586.53
2023-10-29T06:02:00.685Z,94586.53
2023-10-29T06:03:02.326Z,94588.59
2023-10-29T06:04:04.082Z,94588.16
2023-10-29T06:05:06.627Z,94590.22
2023-10-29T06:06:08.163Z,94596.94
2023-10-29T06:07:09.834Z,94592.88
2023-10-29T06:08:11.632Z,94594.50
2023-10-29T06:09:23.158Z,94588.81
2023-10-29T06:10:25.921Z,94597.16
2023-10-29T06:11:27.380Z,94596.16
2023-10-29T06:12:28.922Z,94600.44
2023-10-29T06:13:30.491Z,94599.38
2023-10-29T06:14:33.092Z,94594.66
2023-10-29T06:15:34.512Z,94597.91
2023-10-29T06:16:36.538Z,94605.66
2023-10-29T06:17:39.228Z,94609.72
2023-10-29T06:18:41.392Z,94610.25
2023-10-29T06:19:43.006Z,94609.34
2023-10-29T06:20:44.548Z,94612.38
2023-10-29T06:21:46.266Z,94614.00
2023-10-29T06:22:51.662Z,94625.41
2023-10-29T06:23:53.496Z,94622.63
2023-10-29T06:24:54.958Z,94622.41
2023-10-29T06:25:56.674Z,94621.34
2023-10-29T06:26:58.405Z,94620.31
2023-10-29T06:28:00.511Z,94621.28
2023-10-29T06:29:01.999Z,94622.38
2023-10-29T06:30:03.917Z,94624.38
2023-10-29T06:31:05.543Z,94633.09
2023-10-29T06:32:07.196Z,94637.88
2023-10-29T06:33:08.789Z,94639.06
2023-10-29T06:34:10.538Z,94632.84
2023-10-29T06:35:13.201Z,94639.34
2023-10-29T06:36:14.738Z,94636.34
2023-10-29T06:37:16.235Z,94640.72
2023-10-29T06:38:17.744Z,94638.97
2023-10-29T06:39:19.236Z,94649.44
2023-10-29T06:40:20.985Z,94649.53
2023-10-29T06:41:23.130Z,94654.53
2023-10-29T06:42:24.575Z,94658.34
2023-10-29T06:43:26.169Z,94649.63
2023-10-29T06:44:27.607Z,94653.44
2023-10-29T06:45:29.077Z,94649.81
2023-10-29T06:46:31.989Z,94649.44
2023-10-29T06:47:33.601Z,94658.25
2023-10-29T06:48:38.265Z,94657.31
2023-10-29T06:49:39.708Z,94660.00
2023-10-29T06:50:43.805Z,94665.25
2023-10-29T06:51:45.675Z,94661.94
2023-10-29T06:52:47.078Z,94663.84
2023-10-29T06:53:48.915Z,94667.56
2023-10-29T06:54:50.514Z,94666.03
2023-10-29T06:55:52.060Z,94674.91
2023-10-29T06:56:53.550Z,94674.50
2023-10-29T06:57:55.242Z,94671.00
2023-10-29T06:58:56.660Z,94674.84
2023-10-29T06:59:59.054Z,94676.94
2023-10-29T07:01:05.173Z,94675.47
2023-10-29T07:02:09.815Z,94677.00
2023-10-29T07:03:11.461Z,94679.34
2023-10-29T07:04:13.176Z,94682.03
2023-10-29T07:05:14.844Z,94676.09
2023-10-29T07:06:17.104Z,94680.41
2023-10-29T07:07:19.166Z,94678.19
2023-10-29T07:08:20.671Z,94679.56
2023-10-29T07:09:22.238Z,94687.13
2023-10-29T07:10:24.337Z,94686.31
2023-10-29T07:11:26.235Z,94685.50
2023-10-29T07:12:27.700Z,94683.34
2023-10-29T07:13:30.164Z,94688.44
2023-10-29T07:14:31.593Z,94692.28
2023-10-29T07:15:33.054Z,94689.88
2023-10-29T07:16:34.564Z,94697.75
2023-10-29T07:17:36.143Z,94694.75
2023-10-29T07:18:38.002Z,94697.81
2023-10-29T07:19:40.238Z,94696.84
2023-10-29T07:20:41.730Z,94693.03
2023-10-29T07:21:43.423Z,94697.25
2023-10-29T07:22:44.844Z,94692.97
2023-10-29T07:23:46.383Z,94690.66
2023-10-29T07:24:48.006Z,94694.13
2023-10-29T07:25:50.652Z,94697.34
2023-10-29T07:26:52.183Z,94695.66
2023-10-29T07:27:53.792Z,94691.59
2023-10-29T07:28:55.317Z,94688.13
2023-10-29T07:29:56.829Z,94694.94
2023-10-29T07:30:58.754Z,94692.66
2023-10-29T07:32:00.326Z,94703.13
2023-10-29T07:33:01.933Z,94698.50
2023-10-29T07:34:03.533Z,94696.53
2023-10-29T07:35:05.319Z,94694.94
2023-10-29T07:36:07.275Z,94702.78
2023-10-29T07:37:11.398Z,94703.88
2023-10-29T07:38:13.505Z,94702.56
2023-10-29T07:39:14.950Z,94702.25
2023-10-29T07:40:17.274Z,94699.91
2023-10-29T07:41:20.481Z,94698.09
2023-10-29T07:42:22.268Z,94698.50
2023-10-29T07:43:23.746Z,94700.63
2023-10-29T07:44:25.573Z,94693.53
2023-10-29T07:45:27.125Z,94697.53
2023-10-29T07:46:28.563Z,94690.72
2023-10-29T07:47:30.002Z,94694.84
2023-10-29T07:48:31.557Z,94694.59
2023-10-29T07:49:33.061Z,94697.94
2023-10-29T07:50:34.553Z,94703.06
2023-10-29T07:51:36.034Z,94705.72
2023-10-29T07:52:41.023Z,94703.72
2023-10-29T07:53:42.634Z,94704.59
2023-10-29T07:54:44.221Z,94707.09
2023-10-29T07:55:46.260Z,94710.28
2023-10-29T07:56:47.732Z,94715.22
2023-10-29T07:57:49.579Z,94713.34
2023-10-29T07:58:51.089Z,94711.91
2023-10-29T07:59:52.565Z,94719.44
2023-10-29T08:00:54.102Z,94714.00
2023-10-29T08:01:55.536Z,94712.31
2023-10-29T08:02:57.015Z,94709.22
2023-10-29T08:03:58.744Z,94707.25
2023-10-29T08:05:00.602Z,94706.84
2023-10-29T08:06:02.386Z,94708.16
2023-10-29T08:07:05.203Z,94710.41
2023-10-29T08:08:06.968Z,94711.81
2023-10-29T08:09:09.423Z,94713.78
2023-10-29T08:10:11.613Z,94714.66
2023-10-29T08:11:22.499Z,94718.97
2023-10-29T08:12:24.669Z,94720.28
2023-10-29T08:13:26.423Z,94714.88
2023-10-29T08:14:27.850Z,94724.22
2023-10-29T08:15:29.397Z,94722.19
2023-10-29T08:16:30.987Z,94729.22
2023-10-29T08:17:32.709Z,94723.69
2023-10-29T08:18:34.199Z,94727.31
2023-10-29T08:19:35.877Z,94726.75
2023-10-29T08:20:37.360Z,94728.94
2023-10-29T08:21:38.889Z,94731.63
2023-10-29T08:22:40.400Z,94731.94
2023-10-29T08:23:42.112Z,94737.19
2023-10-29T08:24:44.760Z,94740.72
2023-10-29T08:25:46.165Z,94738.31
2023-10-29T08:26:47.654Z,94740.72
2023-10-29T08:27:49.141Z,94743.50
2023-10-29T08:28:50.650Z,94749.59
2023-10-29T08:29:53.008Z,94749.53
2023-10-29T08:30:55.888Z,94756.47
2023-10-29T08:31:57.449Z,94750.09
2023-10-29T08:32:59.309Z,94756.66
2023-10-29T08:34:00.853Z,94753.78
2023-10-29T08:35:03.125Z,94757.44
2023-10-29T08:36:05.159Z,94751.13
2023-10-29T08:37:07.009Z,94753.09
2023-10-29T08:38:08.514Z,94748.94
2023-10-29T08:39:10.363Z,94745.94
2023-10-29T08:40:12.558Z,94751.09
2023-10-29T08:41:18.122Z,94755.22
2023-10-29T08:42:19.560Z,94760.94
2023-10-29T08:43:21.129Z,94764.06
2023-10-29T08:44:22.607Z,94761.44
2023-10-29T08:45:38.443Z,94758.22
2023-10-29T08:46:42.769Z,94768.28
2023-10-29T08:47:44.583Z,94757.72
2023-10-29T08:48:46.118Z,94755.56
2023-10-29T08:49:47.626Z,94764.38
2023-10-29T08:50:49.199Z,94753.97
2023-10-29T08:51:51.126Z,94758.03
2023-10-29T08:52:52.621Z,94759.91
2023-10-29T08:53:54.098Z,94763.09
2023-10-29T08:54:55.597Z,94755.78
2023-10-29T08:55:57.079Z,94751.91
2023-10-29T08:56:58.623Z,94754.09
2023-10-29T08:58:00.124Z,94754.94
2023-10-29T08:59:05.575Z,94756.88
2023-10-29T09:00:07.787Z,94756.81
2023-10-29T09:01:13.509Z,94751.31
2023-10-29T09:02:15.143Z,94750.09
2023-10-29T09:03:17.201Z,94758.09
2023-10-29T09:04:20.917Z,94761.00
2023-10-29T09:05:22.771Z,94764.59
2023-10-29T09:06:25.483Z,94758.91
2023-10-29T09:07:28.104Z,94764.00
2023-10-29T09:08:29.577Z,94756.44
2023-10-29T09:09:31.461Z,94754.56
2023-10-29T09:10:33.620Z,94746.50
2023-10-29T09:11:35.156Z,94749.19
2023-10-29T09:12:38.028Z,94746.63
2023-10-29T09:13:39.502Z,94745.84
2023-10-29T09:14:41.081Z,94735.38
2023-10-29T09:15:43.052Z,94743.91
2023-10-29T09:16:48.373Z,94729.72
2023-10-29T09:17:49.918Z,94726.75
2023-10-29T09:18:51.420Z,94730.59
2023-10-29T09:19:52.884Z,94727.56
2023-10-29T09:20:54.431Z,94725.16
2023-10-29T09:21:55.942Z,94729.34
2023-10-29T09:22:58.348Z,94724.47
2023-10-29T09:24:00.289Z,94729.66
2023-10-29T09:25:01.822Z,94727.19
2023-10-29T09:26:03.466Z,94728.41
2023-10-29T09:27:05.669Z,94730.84
2023-10-29T09:28:07.627Z,94719.75
2023-10-29T09:29:09.354Z,94718.94
2023-10-29T09:30:11.237Z,94719.66
2023-10-29T09:31:20.003Z,94719.66
2023-10-29T09:32:22.025Z,94722.16
2023-10-29T09:33:23.628Z,94721.84
2023-10-29T09:34:25.108Z,94726.34
2023-10-29T09:35:26.563Z,94722.50
2023-10-29T09:36:28.292Z,94726.31
2023-10-29T09:37:29.819Z,94726.91
2023-10-29T09:38:31.334Z,94724.41
2023-10-29T09:39:32.811Z,94720.06
2023-10-29T09:40:34.576Z,94718.72
2023-10-29T09:41:38.590Z,94722.50
2023-10-29T09:42:50.749Z,94712.38
2023-10-29T09:43:54.252Z,94712.84
2023-10-29T09:44:59.361Z,94708.34
2023-10-29T09:46:05.850Z,94706.72
2023-10-29T09:47:15.470Z,94708.38
2023-10-29T09:48:17.189Z,94707.97
2023-10-29T09:49:19.504Z,94705.28
2023-10-29T09:50:22.868Z,94710.22
2023-10-29T09:51:24.801Z,94707.59
2023-10-29T09:52:32.495Z,94704.66
2023-10-29T09:53:38.569Z,94717.00
2023-10-29T09:54:41.701Z,94712.09
2023-10-29T09:55:43.244Z,94708.66
2023-10-29T09:56:45.748Z,94710.81
2023-10-29T09:57:48.319Z,94715.09
2023-10-29T09:58:49.799Z,94712.34
2023-10-29T09:59:51.401Z,94710.66
2023-10-29T10:00:53.828Z,94703.69
2023-10-29T10:01:58.887Z,94704.03
2023-10-29T10:03:01.251Z,94701.63
2023-10-29T10:04:02.928Z,94695.25
2023-10-29T10:05:11.020Z,94700.41
2023-10-29T10:06:16.072Z,94693.94
2023-10-29T10:07:19.788Z,94689.84
2023-10-29T10:08:31.773Z,94686.59
2023-10-29T10:09:55.800Z,94689.28
2023-10-29T10:10:58.554Z,94694.09
2023-10-29T10:12:05.387Z,94690.38
2023-10-29T10:13:07.981Z,94693.31
2023-10-29T10:14:25.693Z,94693.03
2023-10-29T10:15:27.170Z,94700.84
2023-10-29T10:16:28.735Z,94697.34
2023-10-29T10:17:30.841Z,94688.00
2023-10-29T10:18:48.408Z,94687.19
2023-10-29T10:20:07.087Z,94686.38
2023-10-29T10:21:08.570Z,94687.22
2023-10-29T10:22:10.429Z,94688.09
2023-10-29T10:23:12.590Z,94668.69
2023-10-29T10:24:15.124Z,94674.41
2023-10-29T10:25:19.335Z,94674.16
2023-10-29T10:26:27.911Z,94671.19
2023-10-29T10:27:29.515Z,94676.03
2023-10-29T10:28:33.206Z,94674.19
2023-10-29T10:29:34.982Z,94675.03
2023-10-29T10:30:41.087Z,94670.16
2023-10-29T10:31:42.859Z,94676.38
2023-10-29T10:32:44.486Z,94680.69
2023-10-29T10:33:46.403Z,94676.66
2023-10-29T10:34:52.500Z,94678.25
2023-10-29T10:35:56.823Z,94679.06
2023-10-29T10:37:02.246Z,94672.88
2023-10-29T10:38:04.340Z,94669.91
2023-10-29T10:39:06.344Z,94666.13
2023-10-29T10:40:23.466Z,94671.53
2023-10-29T10:41:25.009Z,94669.88
2023-10-29T10:42:26.685Z,94674.47
2023-10-29T10:43:29.175Z,94682.84
2023-10-29T10:44:31.841Z,94677.19
2023-10-29T10:45:34.830Z,94677.47
2023-10-29T10:46:38.089Z,94675.03
2023-10-29T10:47:39.912Z,94670.72
2023-10-29T10:48:43.187Z,94665.59
2023-10-29T10:49:45.450Z,94674.75
2023-10-29T10:50:47.876Z,94674.75
2023-10-29T10:51:58.620Z,94663.69
2023-10-29T10:53:00.281Z,94666.41
2023-10-29T10:54:03.638Z,94672.59
2023-10-29T10:55:05.753Z,94670.97
2023-10-29T10:56:09.662Z,94669.66
2023-10-29T10:57:11.856Z,94670.19
2023-10-29T10:58:14.177Z,94671.78
2023-10-29T10:59:16.258Z,94662.88
2023-10-29T11:00:19.241Z,94671.25
2023-10-29T11:01:21.262Z,94668.00
2023-10-29T11:02:24.638Z,94676.66
2023-10-29T11:03:33.321Z,94676.13
2023-10-29T11:04:36.440Z,94671.53
2023-10-29T11:05:38.573Z,94674.50
2023-10-29T11:06:41.678Z,94671.81
2023-10-29T11:07:45.233Z,94672.88
2023-10-29T11:08:46.960Z,94673.94
2023-10-29T11:09:48.541Z,94673.16
2023-10-29T11:10:50.110Z,94665.84
2023-10-29T11:11:55.724Z,94674.22
2023-10-29T11:13:18.571Z,94669.66
2023-10-29T11:14:21.947Z,94658.56
2023-10-29T11:15:23.932Z,94665.34
2023-10-29T11:16:26.328Z,94664.78
2023-10-29T11:18:00.949Z,94668.03
2023-10-29T11:19:34.456Z,94662.38
2023-10-29T11:20:39.934Z,94670.16
2023-10-29T11:21:43.050Z,94661.81
2023-10-29T11:22:52.428Z,94659.66
2023-10-29T11:24:18.572Z,94655.06
2023-10-29T11:25:29.701Z,94640.25
2023-10-29T11:26:31.720Z,94638.63
2023-10-29T11:27:36.387Z,94626.22
2023-10-29T11:28:37.799Z,94623.81
2023-10-29T11:29:42.297Z,94621.88
2023-10-29T11:30:44.041Z,94617.31
2023-10-29T11:31:45.696Z,94619.22
2023-10-29T11:33:11.051Z,94617.03
2023-10-29T11:34:12.599Z,94608.41
2023-10-29T11:35:17.267Z,94606.25
2023-10-29T11:36:35.630Z,94615.69
2023-10-29T11:37:40.303Z,94609.19
2023-10-29T11:38:41.937Z,94613.50
2023-10-29T11:39:44.777Z,94605.97
2023-10-29T11:40:46.280Z,94605.06
2023-10-29T11:41:48.480Z,94598.03
2023-10-29T11:42:51.974Z,94596.41
2023-10-29T11:44:18.640Z,94597.22
2023-10-29T11:45:29.440Z,94599.84
2023-10-29T11:46:59.924Z,94593.91
2023-10-29T11:48:07.980Z,94591.19
2023-10-29T11:49:09.596Z,94613.34
2023-10-29T11:50:12.289Z,94605.28
2023-10-29T11:51:13.827Z,94601.78
2023-10-29T11:52:15.337Z,94592.56
2023-10-29T11:53:25.780Z,94604.09
2023-10-29T11:54:27.834Z,94599.97
2023-10-29T11:55:30.356Z,94604.09
2023-10-29T11:56:35.230Z,94605.69
2023-10-29T11:57:37.102Z,94593.91
2023-10-29T11:58:38.742Z,94588.22
2023-10-29T11:59:56.287Z,94596.09
2023-10-29T12:00:58.664Z,94581.66
2023-10-29T12:02:00.596Z,94584.53
2023-10-29T12:03:02.390Z,94584.50
2023-10-29T12:04:04.347Z,94592.50
2023-10-29T12:05:10.629Z,94593.59
2023-10-29T12:06:12.126Z,94597.72
2023-10-29T12:07:26.716Z,94592.28
2023-10-29T12:08:31.117Z,94591.22
2023-10-29T12:09:35.203Z,94594.16
2023-10-29T12:10:45.961Z,94596.75
2023-10-29T12:11:50.112Z,94599.13
2023-10-29T12:12:53.753Z,94608.72
2023-10-29T12:13:55.207Z,94596.63
2023-10-29T12:14:56.923Z,94603.09
2023-10-29T12:16:03.061Z,94602.41
2023-10-29T12:17:04.980Z,94610.25